sensor_id;sensor_type;location;lat;lon;timestamp;P1;P2;P0
62249;PMS5003;48237;50.140;8.486;2022-09-09T00:01:46;4;4;
62249;PMS5003;48237;50.140;8.486;2022-09-09T00:04:20;3;3;
62249;PMS5003;48237;50.140;8.486;2022-09-09T00:06:55;4;2;
62249;PMS5003;48237;50.140;8.486;2022-09-09T00:09:31;2;2;
62249;PMS5003;48237;50.140;8.486;2022-09-09T00:12:09;4;4;
62249;PMS5003;48237;50.140;8.486;2022-09-09T00:14:41;4;4;
62249;PMS5003;48237;50.140;8.486;2022-09-09T00:17:16;2;2;
62249;PMS5003;48237;50.140;8.486;2022-09-09T00:19:58;3;3;
62249;PMS5003;48237;50.140;8.486;2022-09-09T00:22:37;4;4;
62249;PMS5003;48237;50.140;8.486;2022-09-09T00:25:11;2;2;
62249;PMS5003;48237;50.140;8.486;2022-09-09T00:27:44;3;3;
62249;PMS5003;48237;50.140;8.486;2022-09-09T00:30:15;3;1;
62249;PMS5003;48237;50.140;8.486;2022-09-09T00:32:44;3;3;
62249;PMS5003;48237;50.140;8.486;2022-09-09T00:35:14;6;2;
62249;PMS5003;48237;50.140;8.486;2022-09-09T00:37:46;2;2;
62249;PMS5003;48237;50.140;8.486;2022-09-09T00:40:18;4;2;
62249;PMS5003;48237;50.140;8.486;2022-09-09T00:42:51;3;2;
62249;PMS5003;48237;50.140;8.486;2022-09-09T00:45:36;2;2;
62249;PMS5003;48237;50.140;8.486;2022-09-09T00:48:18;1;1;
62249;PMS5003;48237;50.140;8.486;2022-09-09T00:50:51;2;2;
62249;PMS5003;48237;50.140;8.486;2022-09-09T00:53:26;0;0;
62249;PMS5003;48237;50.140;8.486;2022-09-09T00:56:06;2;2;
62249;PMS5003;48237;50.140;8.486;2022-09-09T00:58:38;4;2;
62249;PMS5003;48237;50.140;8.486;2022-09-09T01:01:09;3;3;
62249;PMS5003;48237;50.140;8.486;2022-09-09T01:03:38;4;3;
62249;PMS5003;48237;50.140;8.486;2022-09-09T01:06:13;1;1;
62249;PMS5003;48237;50.140;8.486;2022-09-09T01:08:52;3;3;
62249;PMS5003;48237;50.140;8.486;2022-09-09T01:11:33;5;4;
62249;PMS5003;48237;50.140;8.486;2022-09-09T01:14:11;2;2;
62249;PMS5003;48237;50.140;8.486;2022-09-09T01:16:46;3;3;
62249;PMS5003;48237;50.140;8.486;2022-09-09T01:19:16;4;2;
62249;PMS5003;48237;50.140;8.486;2022-09-09T01:21:54;3;2;
62249;PMS5003;48237;50.140;8.486;2022-09-09T01:24:27;2;2;
62249;PMS5003;48237;50.140;8.486;2022-09-09T01:27:04;3;3;
62249;PMS5003;48237;50.140;8.486;2022-09-09T01:29:33;3;2;
62249;PMS5003;48237;50.140;8.486;2022-09-09T01:32:00;1;1;
62249;PMS5003;48237;50.140;8.486;2022-09-09T01:34:31;2;2;
62249;PMS5003;48237;50.140;8.486;2022-09-09T01:37:02;4;3;
62249;PMS5003;48237;50.140;8.486;2022-09-09T01:39:32;4;2;
62249;PMS5003;48237;50.140;8.486;2022-09-09T01:42:02;3;2;
62249;PMS5003;48237;50.140;8.486;2022-09-09T01:44:30;2;2;
62249;PMS5003;48237;50.140;8.486;2022-09-09T01:46:58;5;4;
62249;PMS5003;48237;50.140;8.486;2022-09-09T01:49:26;3;2;
62249;PMS5003;48237;50.140;8.486;2022-09-09T01:51:53;3;3;
62249;PMS5003;48237;50.140;8.486;2022-09-09T01:54:23;2;2;
62249;PMS5003;48237;50.140;8.486;2022-09-09T01:56:54;3;3;
62249;PMS5003;48237;50.140;8.486;2022-09-09T01:59:37;2;2;
62249;PMS5003;48237;50.140;8.486;2022-09-09T02:02:13;4;2;
62249;PMS5003;48237;50.140;8.486;2022-09-09T02:04:47;4;2;
62249;PMS5003;48237;50.140;8.486;2022-09-09T02:07:19;5;4;
62249;PMS5003;48237;50.140;8.486;2022-09-09T02:09:57;3;3;
62249;PMS5003;48237;50.140;8.486;2022-09-09T02:12:28;3;3;
62249;PMS5003;48237;50.140;8.486;2022-09-09T02:14:59;7;4;
62249;PMS5003;48237;50.140;8.486;2022-09-09T02:17:32;6;1;
62249;PMS5003;48237;50.140;8.486;2022-09-09T02:20:06;4;3;
62249;PMS5003;48237;50.140;8.486;2022-09-09T02:22:38;3;3;
62249;PMS5003;48237;50.140;8.486;2022-09-09T02:25:08;4;4;
62249;PMS5003;48237;50.140;8.486;2022-09-09T02:27:39;1;1;
62249;PMS5003;48237;50.140;8.486;2022-09-09T02:30:08;3;3;
62249;PMS5003;48237;50.140;8.486;2022-09-09T02:32:36;2;2;
62249;PMS5003;48237;50.140;8.486;2022-09-09T02:35:07;2;2;
62249;PMS5003;48237;50.140;8.486;2022-09-09T02:37:38;4;2;
62249;PMS5003;48237;50.140;8.486;2022-09-09T02:40:06;2;2;
62249;PMS5003;48237;50.140;8.486;2022-09-09T02:42:38;5;5;
62249;PMS5003;48237;50.140;8.486;2022-09-09T02:45:06;4;3;
62249;PMS5003;48237;50.140;8.486;2022-09-09T02:47:35;3;3;
62249;PMS5003;48237;50.140;8.486;2022-09-09T02:50:08;3;3;
62249;PMS5003;48237;50.140;8.486;2022-09-09T02:52:41;2;2;
62249;PMS5003;48237;50.140;8.486;2022-09-09T02:55:16;4;4;
62249;PMS5003;48237;50.140;8.486;2022-09-09T02:57:50;2;2;
62249;PMS5003;48237;50.140;8.486;2022-09-09T03:00:22;2;2;
62249;PMS5003;48237;50.140;8.486;2022-09-09T03:02:51;5;4;
62249;PMS5003;48237;50.140;8.486;2022-09-09T03:05:19;3;3;
62249;PMS5003;48237;50.140;8.486;2022-09-09T03:07:46;1;1;
62249;PMS5003;48237;50.140;8.486;2022-09-09T03:10:12;3;1;
62249;PMS5003;48237;50.140;8.486;2022-09-09T03:12:40;5;3;
62249;PMS5003;48237;50.140;8.486;2022-09-09T03:15:07;2;2;
62249;PMS5003;48237;50.140;8.486;2022-09-09T03:17:36;3;3;
62249;PMS5003;48237;50.140;8.486;2022-09-09T03:20:04;2;2;
62249;PMS5003;48237;50.140;8.486;2022-09-09T03:22:31;4;3;
62249;PMS5003;48237;50.140;8.486;2022-09-09T03:24:58;4;3;
62249;PMS5003;48237;50.140;8.486;2022-09-09T03:27:26;3;3;
62249;PMS5003;48237;50.140;8.486;2022-09-09T03:29:53;2;2;
62249;PMS5003;48237;50.140;8.486;2022-09-09T03:32:20;3;3;
62249;PMS5003;48237;50.140;8.486;2022-09-09T03:34:47;3;3;
62249;PMS5003;48237;50.140;8.486;2022-09-09T03:37:14;2;2;
62249;PMS5003;48237;50.140;8.486;2022-09-09T03:39:41;2;2;
62249;PMS5003;48237;50.140;8.486;2022-09-09T03:42:08;3;3;
62249;PMS5003;48237;50.140;8.486;2022-09-09T03:44:35;5;3;
62249;PMS5003;48237;50.140;8.486;2022-09-09T03:47:02;3;2;
62249;PMS5003;48237;50.140;8.486;2022-09-09T03:49:29;2;2;
62249;PMS5003;48237;50.140;8.486;2022-09-09T03:51:56;2;2;
62249;PMS5003;48237;50.140;8.486;2022-09-09T03:54:23;2;2;
62249;PMS5003;48237;50.140;8.486;2022-09-09T03:56:50;3;3;
62249;PMS5003;48237;50.140;8.486;2022-09-09T03:59:17;2;2;
62249;PMS5003;48237;50.140;8.486;2022-09-09T04:01:44;1;1;
62249;PMS5003;48237;50.140;8.486;2022-09-09T04:04:11;3;3;
62249;PMS5003;48237;50.140;8.486;2022-09-09T04:06:38;2;2;
62249;PMS5003;48237;50.140;8.486;2022-09-09T04:09:05;3;3;
62249;PMS5003;48237;50.140;8.486;2022-09-09T04:11:32;2;2;
62249;PMS5003;48237;50.140;8.486;2022-09-09T04:13:59;2;2;
62249;PMS5003;48237;50.140;8.486;2022-09-09T04:16:26;3;3;
62249;PMS5003;48237;50.140;8.486;2022-09-09T04:18:53;1;1;
62249;PMS5003;48237;50.140;8.486;2022-09-09T04:21:20;3;3;
62249;PMS5003;48237;50.140;8.486;2022-09-09T04:23:47;3;3;
62249;PMS5003;48237;50.140;8.486;2022-09-09T04:26:14;2;2;
62249;PMS5003;48237;50.140;8.486;2022-09-09T04:28:41;4;3;
62249;PMS5003;48237;50.140;8.486;2022-09-09T04:31:08;4;3;
62249;PMS5003;48237;50.140;8.486;2022-09-09T04:33:37;2;2;
62249;PMS5003;48237;50.140;8.486;2022-09-09T04:36:04;2;2;
62249;PMS5003;48237;50.140;8.486;2022-09-09T04:38:32;2;2;
62249;PMS5003;48237;50.140;8.486;2022-09-09T04:40:59;2;2;
62249;PMS5003;48237;50.140;8.486;2022-09-09T04:43:26;5;2;
62249;PMS5003;48237;50.140;8.486;2022-09-09T04:45:53;4;3;
62249;PMS5003;48237;50.140;8.486;2022-09-09T04:48:20;2;2;
62249;PMS5003;48237;50.140;8.486;2022-09-09T04:50:55;2;2;
62249;PMS5003;48237;50.140;8.486;2022-09-09T04:53:23;5;4;
62249;PMS5003;48237;50.140;8.486;2022-09-09T04:55:50;1;1;
62249;PMS5003;48237;50.140;8.486;2022-09-09T04:58:18;4;3;
62249;PMS5003;48237;50.140;8.486;2022-09-09T05:00:45;3;3;
62249;PMS5003;48237;50.140;8.486;2022-09-09T05:03:12;3;3;
62249;PMS5003;48237;50.140;8.486;2022-09-09T05:05:39;3;3;
62249;PMS5003;48237;50.140;8.486;2022-09-09T05:08:06;3;2;
62249;PMS5003;48237;50.140;8.486;2022-09-09T05:10:36;3;3;
62249;PMS5003;48237;50.140;8.486;2022-09-09T05:13:04;6;4;
62249;PMS5003;48237;50.140;8.486;2022-09-09T05:15:32;3;3;
62249;PMS5003;48237;50.140;8.486;2022-09-09T05:17:59;4;4;
62249;PMS5003;48237;50.140;8.486;2022-09-09T05:20:27;4;2;
62249;PMS5003;48237;50.140;8.486;2022-09-09T05:22:55;3;3;
62249;PMS5003;48237;50.140;8.486;2022-09-09T05:25:23;2;2;
62249;PMS5003;48237;50.140;8.486;2022-09-09T05:27:50;5;4;
62249;PMS5003;48237;50.140;8.486;2022-09-09T05:30:17;4;4;
62249;PMS5003;48237;50.140;8.486;2022-09-09T05:32:44;5;3;
62249;PMS5003;48237;50.140;8.486;2022-09-09T05:35:11;5;3;
62249;PMS5003;48237;50.140;8.486;2022-09-09T05:37:38;6;4;
62249;PMS5003;48237;50.140;8.486;2022-09-09T05:40:05;4;4;
62249;PMS5003;48237;50.140;8.486;2022-09-09T05:42:33;5;3;
62249;PMS5003;48237;50.140;8.486;2022-09-09T05:45:00;3;3;
62249;PMS5003;48237;50.140;8.486;2022-09-09T05:47:27;4;3;
62249;PMS5003;48237;50.140;8.486;2022-09-09T05:49:54;1;1;
62249;PMS5003;48237;50.140;8.486;2022-09-09T05:52:21;2;2;
62249;PMS5003;48237;50.140;8.486;2022-09-09T05:54:48;4;3;
62249;PMS5003;48237;50.140;8.486;2022-09-09T05:57:15;3;3;
62249;PMS5003;48237;50.140;8.486;2022-09-09T05:59:41;5;4;
62249;PMS5003;48237;50.140;8.486;2022-09-09T06:02:08;4;2;
62249;PMS5003;48237;50.140;8.486;2022-09-09T06:04:35;3;3;
62249;PMS5003;48237;50.140;8.486;2022-09-09T06:07:02;6;3;
62249;PMS5003;48237;50.140;8.486;2022-09-09T06:09:30;2;2;
62249;PMS5003;48237;50.140;8.486;2022-09-09T06:11:57;4;3;
62249;PMS5003;48237;50.140;8.486;2022-09-09T06:14:24;5;4;
62249;PMS5003;48237;50.140;8.486;2022-09-09T06:16:51;5;4;
62249;PMS5003;48237;50.140;8.486;2022-09-09T06:19:17;4;4;
62249;PMS5003;48237;50.140;8.486;2022-09-09T06:21:44;6;4;
62249;PMS5003;48237;50.140;8.486;2022-09-09T06:24:11;6;6;
62249;PMS5003;48237;50.140;8.486;2022-09-09T06:26:38;6;5;
62249;PMS5003;48237;50.140;8.486;2022-09-09T06:29:06;5;5;
62249;PMS5003;48237;50.140;8.486;2022-09-09T06:31:34;7;7;
62249;PMS5003;48237;50.140;8.486;2022-09-09T06:34:04;6;6;
62249;PMS5003;48237;50.140;8.486;2022-09-09T06:36:33;7;5;
62249;PMS5003;48237;50.140;8.486;2022-09-09T06:39:01;6;6;
62249;PMS5003;48237;50.140;8.486;2022-09-09T06:41:29;6;4;
62249;PMS5003;48237;50.140;8.486;2022-09-09T06:43:57;7;6;
62249;PMS5003;48237;50.140;8.486;2022-09-09T06:46:25;6;4;
62249;PMS5003;48237;50.140;8.486;2022-09-09T06:48:54;10;5;
62249;PMS5003;48237;50.140;8.486;2022-09-09T06:51:22;8;5;
62249;PMS5003;48237;50.140;8.486;2022-09-09T06:53:50;4;4;
62249;PMS5003;48237;50.140;8.486;2022-09-09T06:56:19;5;4;
62249;PMS5003;48237;50.140;8.486;2022-09-09T06:58:49;4;4;
62249;PMS5003;48237;50.140;8.486;2022-09-09T07:01:17;5;4;
62249;PMS5003;48237;50.140;8.486;2022-09-09T07:03:46;7;5;
62249;PMS5003;48237;50.140;8.486;2022-09-09T07:06:15;6;6;
62249;PMS5003;48237;50.140;8.486;2022-09-09T07:08:43;6;4;
62249;PMS5003;48237;50.140;8.486;2022-09-09T07:11:11;4;3;
62249;PMS5003;48237;50.140;8.486;2022-09-09T07:13:37;4;4;
62249;PMS5003;48237;50.140;8.486;2022-09-09T07:16:05;3;3;
62249;PMS5003;48237;50.140;8.486;2022-09-09T07:18:33;5;3;
62249;PMS5003;48237;50.140;8.486;2022-09-09T07:21:01;5;5;
62249;PMS5003;48237;50.140;8.486;2022-09-09T07:23:29;4;4;
62249;PMS5003;48237;50.140;8.486;2022-09-09T07:25:57;8;6;
62249;PMS5003;48237;50.140;8.486;2022-09-09T07:28:25;4;4;
62249;PMS5003;48237;50.140;8.486;2022-09-09T07:30:53;4;4;
62249;PMS5003;48237;50.140;8.486;2022-09-09T07:33:21;10;5;
62249;PMS5003;48237;50.140;8.486;2022-09-09T07:35:48;6;4;
62249;PMS5003;48237;50.140;8.486;2022-09-09T07:38:16;4;4;
62249;PMS5003;48237;50.140;8.486;2022-09-09T07:40:42;3;3;
62249;PMS5003;48237;50.140;8.486;2022-09-09T07:43:09;4;4;
62249;PMS5003;48237;50.140;8.486;2022-09-09T07:45:36;3;1;
62249;PMS5003;48237;50.140;8.486;2022-09-09T07:48:04;4;4;
62249;PMS5003;48237;50.140;8.486;2022-09-09T07:50:32;3;2;
62249;PMS5003;48237;50.140;8.486;2022-09-09T07:53:00;6;6;
62249;PMS5003;48237;50.140;8.486;2022-09-09T07:55:27;5;5;
62249;PMS5003;48237;50.140;8.486;2022-09-09T07:57:55;3;3;
62249;PMS5003;48237;50.140;8.486;2022-09-09T08:00:22;4;4;
62249;PMS5003;48237;50.140;8.486;2022-09-09T08:02:49;2;2;
62249;PMS5003;48237;50.140;8.486;2022-09-09T08:05:17;5;3;
62249;PMS5003;48237;50.140;8.486;2022-09-09T08:07:43;3;3;
62249;PMS5003;48237;50.140;8.486;2022-09-09T08:10:10;5;3;
62249;PMS5003;48237;50.140;8.486;2022-09-09T08:12:37;3;3;
62249;PMS5003;48237;50.140;8.486;2022-09-09T08:15:04;5;5;
62249;PMS5003;48237;50.140;8.486;2022-09-09T08:17:32;8;5;
62249;PMS5003;48237;50.140;8.486;2022-09-09T08:19:58;5;4;
62249;PMS5003;48237;50.140;8.486;2022-09-09T08:22:26;5;4;
62249;PMS5003;48237;50.140;8.486;2022-09-09T08:24:53;4;4;
62249;PMS5003;48237;50.140;8.486;2022-09-09T08:27:20;4;4;
62249;PMS5003;48237;50.140;8.486;2022-09-09T08:29:47;4;4;
62249;PMS5003;48237;50.140;8.486;2022-09-09T08:32:13;7;3;
62249;PMS5003;48237;50.140;8.486;2022-09-09T08:34:40;5;5;
62249;PMS5003;48237;50.140;8.486;2022-09-09T08:37:07;7;6;
62249;PMS5003;48237;50.140;8.486;2022-09-09T08:39:34;6;5;
62249;PMS5003;48237;50.140;8.486;2022-09-09T08:42:08;5;5;
62249;PMS5003;48237;50.140;8.486;2022-09-09T08:44:50;11;7;
62249;PMS5003;48237;50.140;8.486;2022-09-09T08:47:33;8;5;
62249;PMS5003;48237;50.140;8.486;2022-09-09T08:50:13;4;4;
62249;PMS5003;48237;50.140;8.486;2022-09-09T08:52:48;9;6;
62249;PMS5003;48237;50.140;8.486;2022-09-09T08:55:21;6;6;
62249;PMS5003;48237;50.140;8.486;2022-09-09T08:57:53;4;4;
62249;PMS5003;48237;50.140;8.486;2022-09-09T09:00:23;5;3;
62249;PMS5003;48237;50.140;8.486;2022-09-09T09:03:00;4;4;
62249;PMS5003;48237;50.140;8.486;2022-09-09T09:05:37;6;6;
62249;PMS5003;48237;50.140;8.486;2022-09-09T09:08:15;5;5;
62249;PMS5003;48237;50.140;8.486;2022-09-09T09:10:53;10;5;
62249;PMS5003;48237;50.140;8.486;2022-09-09T09:13:24;6;6;
62249;PMS5003;48237;50.140;8.486;2022-09-09T09:15:58;5;5;
62249;PMS5003;48237;50.140;8.486;2022-09-09T09:18:31;7;7;
62249;PMS5003;48237;50.140;8.486;2022-09-09T09:21:00;10;6;
62249;PMS5003;48237;50.140;8.486;2022-09-09T09:23:35;8;6;
62249;PMS5003;48237;50.140;8.486;2022-09-09T09:26:09;10;7;
62249;PMS5003;48237;50.140;8.486;2022-09-09T09:28:37;6;6;
62249;PMS5003;48237;50.140;8.486;2022-09-09T09:31:06;7;4;
62249;PMS5003;48237;50.140;8.486;2022-09-09T09:33:44;7;7;
62249;PMS5003;48237;50.140;8.486;2022-09-09T09:36:14;10;8;
62249;PMS5003;48237;50.140;8.486;2022-09-09T09:38:51;9;7;
62249;PMS5003;48237;50.140;8.486;2022-09-09T09:41:28;8;8;
62249;PMS5003;48237;50.140;8.486;2022-09-09T09:43:57;6;5;
62249;PMS5003;48237;50.140;8.486;2022-09-09T09:46:25;5;5;
62249;PMS5003;48237;50.140;8.486;2022-09-09T09:49:00;7;6;
62249;PMS5003;48237;50.140;8.486;2022-09-09T09:51:29;6;5;
62249;PMS5003;48237;50.140;8.486;2022-09-09T09:54:03;6;6;
62249;PMS5003;48237;50.140;8.486;2022-09-09T09:56:41;7;6;
62249;PMS5003;48237;50.140;8.486;2022-09-09T09:59:19;13;10;
62249;PMS5003;48237;50.140;8.486;2022-09-09T10:01:48;9;6;
62249;PMS5003;48237;50.140;8.486;2022-09-09T10:04:17;9;9;
62249;PMS5003;48237;50.140;8.486;2022-09-09T10:06:46;9;8;
62249;PMS5003;48237;50.140;8.486;2022-09-09T10:09:21;10;9;
62249;PMS5003;48237;50.140;8.486;2022-09-09T10:11:53;11;8;
62249;PMS5003;48237;50.140;8.486;2022-09-09T10:14:30;9;7;
62249;PMS5003;48237;50.140;8.486;2022-09-09T10:17:08;11;7;
62249;PMS5003;48237;50.140;8.486;2022-09-09T10:19:49;12;8;
62249;PMS5003;48237;50.140;8.486;2022-09-09T10:22:25;10;7;
62249;PMS5003;48237;50.140;8.486;2022-09-09T10:24:58;9;8;
62249;PMS5003;48237;50.140;8.486;2022-09-09T10:27:47;8;8;
62249;PMS5003;48237;50.140;8.486;2022-09-09T10:30:24;8;7;
62249;PMS5003;48237;50.140;8.486;2022-09-09T10:33:03;11;8;
62249;PMS5003;48237;50.140;8.486;2022-09-09T10:35:37;6;6;
62249;PMS5003;48237;50.140;8.486;2022-09-09T10:38:14;6;6;
62249;PMS5003;48237;50.140;8.486;2022-09-09T10:40:48;7;7;
62249;PMS5003;48237;50.140;8.486;2022-09-09T10:43:31;7;6;
62249;PMS5003;48237;50.140;8.486;2022-09-09T10:46:10;4;4;
62249;PMS5003;48237;50.140;8.486;2022-09-09T10:48:49;7;7;
62249;PMS5003;48237;50.140;8.486;2022-09-09T10:51:30;8;8;
62249;PMS5003;48237;50.140;8.486;2022-09-09T10:54:08;7;7;
62249;PMS5003;48237;50.140;8.486;2022-09-09T10:56:49;9;7;
62249;PMS5003;48237;50.140;8.486;2022-09-09T10:59:20;6;6;
62249;PMS5003;48237;50.140;8.486;2022-09-09T11:01:52;5;5;
62249;PMS5003;48237;50.140;8.486;2022-09-09T11:04:25;9;5;
62249;PMS5003;48237;50.140;8.486;2022-09-09T11:06:56;8;5;
62249;PMS5003;48237;50.140;8.486;2022-09-09T11:09:26;5;5;
62249;PMS5003;48237;50.140;8.486;2022-09-09T11:11:56;7;7;
62249;PMS5003;48237;50.140;8.486;2022-09-09T11:14:26;7;5;
62249;PMS5003;48237;50.140;8.486;2022-09-09T11:17:00;5;2;
62249;PMS5003;48237;50.140;8.486;2022-09-09T11:19:31;6;4;
62249;PMS5003;48237;50.140;8.486;2022-09-09T11:22:02;3;3;
62249;PMS5003;48237;50.140;8.486;2022-09-09T11:24:33;5;5;
62249;PMS5003;48237;50.140;8.486;2022-09-09T11:27:06;2;2;
62249;PMS5003;48237;50.140;8.486;2022-09-09T11:30:45;1;0;
62249;PMS5003;48237;50.140;8.486;2022-09-09T11:33:31;2;2;
62249;PMS5003;48237;50.140;8.486;2022-09-09T11:36:22;3;2;
62249;PMS5003;48237;50.140;8.486;2022-09-09T11:40:07;3;1;
62249;PMS5003;48237;50.140;8.486;2022-09-09T11:42:40;2;2;
62249;PMS5003;48237;50.140;8.486;2022-09-09T11:45:09;3;2;
62249;PMS5003;48237;50.140;8.486;2022-09-09T11:47:37;4;2;
62249;PMS5003;48237;50.140;8.486;2022-09-09T11:50:09;2;2;
62249;PMS5003;48237;50.140;8.486;2022-09-09T11:53:03;3;3;
62249;PMS5003;48237;50.140;8.486;2022-09-09T11:55:42;3;3;
62249;PMS5003;48237;50.140;8.486;2022-09-09T11:58:14;4;3;
62249;PMS5003;48237;50.140;8.486;2022-09-09T12:00:44;2;2;
62249;PMS5003;48237;50.140;8.486;2022-09-09T12:03:31;4;2;
62249;PMS5003;48237;50.140;8.486;2022-09-09T12:06:11;5;5;
62249;PMS5003;48237;50.140;8.486;2022-09-09T12:08:44;5;3;
62249;PMS5003;48237;50.140;8.486;2022-09-09T12:11:23;5;5;
62249;PMS5003;48237;50.140;8.486;2022-09-09T12:13:52;5;3;
62249;PMS5003;48237;50.140;8.486;2022-09-09T12:16:30;4;3;
62249;PMS5003;48237;50.140;8.486;2022-09-09T12:19:12;4;3;
62249;PMS5003;48237;50.140;8.486;2022-09-09T12:21:45;4;4;
62249;PMS5003;48237;50.140;8.486;2022-09-09T12:24:22;3;3;
62249;PMS5003;48237;50.140;8.486;2022-09-09T12:26:59;3;3;
62249;PMS5003;48237;50.140;8.486;2022-09-09T12:29:37;3;3;
62249;PMS5003;48237;50.140;8.486;2022-09-09T12:32:11;4;4;
62249;PMS5003;48237;50.140;8.486;2022-09-09T12:34:43;2;2;
62249;PMS5003;48237;50.140;8.486;2022-09-09T12:37:15;2;2;
62249;PMS5003;48237;50.140;8.486;2022-09-09T12:39:49;2;2;
62249;PMS5003;48237;50.140;8.486;2022-09-09T12:42:21;3;2;
62249;PMS5003;48237;50.140;8.486;2022-09-09T12:44:51;1;1;
62249;PMS5003;48237;50.140;8.486;2022-09-09T12:47:20;3;3;
62249;PMS5003;48237;50.140;8.486;2022-09-09T12:49:51;3;2;
62249;PMS5003;48237;50.140;8.486;2022-09-09T12:52:20;2;1;
62249;PMS5003;48237;50.140;8.486;2022-09-09T12:54:51;5;2;
62249;PMS5003;48237;50.140;8.486;2022-09-09T12:57:19;2;2;
62249;PMS5003;48237;50.140;8.486;2022-09-09T12:59:48;3;3;
62249;PMS5003;48237;50.140;8.486;2022-09-09T13:02:18;5;3;
62249;PMS5003;48237;50.140;8.486;2022-09-09T13:04:46;3;3;
62249;PMS5003;48237;50.140;8.486;2022-09-09T13:07:14;6;4;
62249;PMS5003;48237;50.140;8.486;2022-09-09T13:09:41;3;3;
62249;PMS5003;48237;50.140;8.486;2022-09-09T13:12:11;4;4;
62249;PMS5003;48237;50.140;8.486;2022-09-09T13:14:42;4;3;
62249;PMS5003;48237;50.140;8.486;2022-09-09T13:17:15;6;2;
62249;PMS5003;48237;50.140;8.486;2022-09-09T13:19:46;2;2;
62249;PMS5003;48237;50.140;8.486;2022-09-09T13:22:20;3;2;
62249;PMS5003;48237;50.140;8.486;2022-09-09T13:24:59;1;1;
62249;PMS5003;48237;50.140;8.486;2022-09-09T13:27:28;0;0;
62249;PMS5003;48237;50.140;8.486;2022-09-09T13:29:57;2;2;
62249;PMS5003;48237;50.140;8.486;2022-09-09T13:32:24;2;2;
62249;PMS5003;48237;50.140;8.486;2022-09-09T13:34:53;1;1;
62249;PMS5003;48237;50.140;8.486;2022-09-09T13:37:22;3;1;
62249;PMS5003;48237;50.140;8.486;2022-09-09T13:39:52;4;1;
62249;PMS5003;48237;50.140;8.486;2022-09-09T13:42:24;2;2;
62249;PMS5003;48237;50.140;8.486;2022-09-09T13:44:53;3;3;
62249;PMS5003;48237;50.140;8.486;2022-09-09T13:47:26;6;2;
62249;PMS5003;48237;50.140;8.486;2022-09-09T13:49:56;3;2;
62249;PMS5003;48237;50.140;8.486;2022-09-09T13:52:23;4;1;
62249;PMS5003;48237;50.140;8.486;2022-09-09T13:54:53;1;1;
62249;PMS5003;48237;50.140;8.486;2022-09-09T13:57:20;2;2;
62249;PMS5003;48237;50.140;8.486;2022-09-09T13:59:49;1;1;
62249;PMS5003;48237;50.140;8.486;2022-09-09T14:02:16;1;1;
62249;PMS5003;48237;50.140;8.486;2022-09-09T14:04:44;5;2;
62249;PMS5003;48237;50.140;8.486;2022-09-09T14:07:11;0;0;
62249;PMS5003;48237;50.140;8.486;2022-09-09T14:09:40;2;0;
62249;PMS5003;48237;50.140;8.486;2022-09-09T14:12:08;1;1;
62249;PMS5003;48237;50.140;8.486;2022-09-09T14:14:37;1;1;
62249;PMS5003;48237;50.140;8.486;2022-09-09T14:17:04;0;0;
62249;PMS5003;48237;50.140;8.486;2022-09-09T14:19:30;1;1;
62249;PMS5003;48237;50.140;8.486;2022-09-09T14:21:57;1;1;
62249;PMS5003;48237;50.140;8.486;2022-09-09T14:24:24;3;1;
62249;PMS5003;48237;50.140;8.486;2022-09-09T14:26:51;3;1;
62249;PMS5003;48237;50.140;8.486;2022-09-09T14:29:18;1;1;
62249;PMS5003;48237;50.140;8.486;2022-09-09T14:31:45;2;2;
62249;PMS5003;48237;50.140;8.486;2022-09-09T14:34:12;2;1;
62249;PMS5003;48237;50.140;8.486;2022-09-09T14:36:39;5;3;
62249;PMS5003;48237;50.140;8.486;2022-09-09T14:39:06;2;2;
62249;PMS5003;48237;50.140;8.486;2022-09-09T14:41:33;4;2;
62249;PMS5003;48237;50.140;8.486;2022-09-09T14:44:00;2;1;
62249;PMS5003;48237;50.140;8.486;2022-09-09T14:46:27;0;0;
62249;PMS5003;48237;50.140;8.486;2022-09-09T14:48:54;3;1;
62249;PMS5003;48237;50.140;8.486;2022-09-09T14:51:21;1;1;
62249;PMS5003;48237;50.140;8.486;2022-09-09T14:53:50;2;2;
62249;PMS5003;48237;50.140;8.486;2022-09-09T14:56:19;2;2;
62249;PMS5003;48237;50.140;8.486;2022-09-09T14:58:47;1;1;
62249;PMS5003;48237;50.140;8.486;2022-09-09T15:01:15;1;1;
62249;PMS5003;48237;50.140;8.486;2022-09-09T15:03:48;2;2;
62249;PMS5003;48237;50.140;8.486;2022-09-09T15:06:16;1;1;
62249;PMS5003;48237;50.140;8.486;2022-09-09T15:08:44;5;0;
62249;PMS5003;48237;50.140;8.486;2022-09-09T15:11:12;4;2;
62249;PMS5003;48237;50.140;8.486;2022-09-09T15:13:41;5;2;
62249;PMS5003;48237;50.140;8.486;2022-09-09T15:16:09;2;0;
62249;PMS5003;48237;50.140;8.486;2022-09-09T15:18:38;1;1;
62249;PMS5003;48237;50.140;8.486;2022-09-09T15:21:06;1;1;
62249;PMS5003;48237;50.140;8.486;2022-09-09T15:23:33;3;1;
62249;PMS5003;48237;50.140;8.486;2022-09-09T15:26:01;0;0;
62249;PMS5003;48237;50.140;8.486;2022-09-09T15:28:29;2;1;
62249;PMS5003;48237;50.140;8.486;2022-09-09T15:30:58;4;3;
62249;PMS5003;48237;50.140;8.486;2022-09-09T15:33:30;3;1;
62249;PMS5003;48237;50.140;8.486;2022-09-09T15:35:57;0;0;
62249;PMS5003;48237;50.140;8.486;2022-09-09T15:38:24;1;1;
62249;PMS5003;48237;50.140;8.486;2022-09-09T15:40:53;1;1;
62249;PMS5003;48237;50.140;8.486;2022-09-09T15:43:20;1;1;
62249;PMS5003;48237;50.140;8.486;2022-09-09T15:45:49;4;3;
62249;PMS5003;48237;50.140;8.486;2022-09-09T15:48:23;2;1;
62249;PMS5003;48237;50.140;8.486;2022-09-09T15:51:01;2;2;
62249;PMS5003;48237;50.140;8.486;2022-09-09T15:53:29;1;1;
62249;PMS5003;48237;50.140;8.486;2022-09-09T15:55:56;1;1;
62249;PMS5003;48237;50.140;8.486;2022-09-09T15:58:23;2;1;
62249;PMS5003;48237;50.140;8.486;2022-09-09T16:00:49;4;2;
62249;PMS5003;48237;50.140;8.486;2022-09-09T16:03:16;3;1;
62249;PMS5003;48237;50.140;8.486;2022-09-09T16:05:43;0;0;
62249;PMS5003;48237;50.140;8.486;2022-09-09T16:08:10;2;2;
62249;PMS5003;48237;50.140;8.486;2022-09-09T16:10:47;0;0;
62249;PMS5003;48237;50.140;8.486;2022-09-09T16:13:14;2;2;
62249;PMS5003;48237;50.140;8.486;2022-09-09T16:15:41;2;2;
62249;PMS5003;48237;50.140;8.486;2022-09-09T16:18:08;3;2;
62249;PMS5003;48237;50.140;8.486;2022-09-09T16:20:34;2;2;
62249;PMS5003;48237;50.140;8.486;2022-09-09T16:23:01;3;2;
62249;PMS5003;48237;50.140;8.486;2022-09-09T16:25:28;3;2;
62249;PMS5003;48237;50.140;8.486;2022-09-09T16:27:55;3;1;
62249;PMS5003;48237;50.140;8.486;2022-09-09T16:30:22;3;1;
62249;PMS5003;48237;50.140;8.486;2022-09-09T16:32:48;1;1;
62249;PMS5003;48237;50.140;8.486;2022-09-09T16:35:16;1;1;
62249;PMS5003;48237;50.140;8.486;2022-09-09T16:37:43;1;1;
62249;PMS5003;48237;50.140;8.486;2022-09-09T16:40:10;1;1;
62249;PMS5003;48237;50.140;8.486;2022-09-09T16:42:37;0;0;
62249;PMS5003;48237;50.140;8.486;2022-09-09T16:45:05;1;1;
62249;PMS5003;48237;50.140;8.486;2022-09-09T16:47:32;1;1;
62249;PMS5003;48237;50.140;8.486;2022-09-09T16:49:59;2;1;
62249;PMS5003;48237;50.140;8.486;2022-09-09T16:52:26;2;1;
62249;PMS5003;48237;50.140;8.486;2022-09-09T16:54:52;2;0;
62249;PMS5003;48237;50.140;8.486;2022-09-09T16:57:19;1;1;
62249;PMS5003;48237;50.140;8.486;2022-09-09T16:59:46;3;1;
62249;PMS5003;48237;50.140;8.486;2022-09-09T17:02:13;2;1;
62249;PMS5003;48237;50.140;8.486;2022-09-09T17:04:40;1;1;
62249;PMS5003;48237;50.140;8.486;2022-09-09T17:07:07;1;1;
62249;PMS5003;48237;50.140;8.486;2022-09-09T17:09:34;2;2;
62249;PMS5003;48237;50.140;8.486;2022-09-09T17:12:01;1;1;
62249;PMS5003;48237;50.140;8.486;2022-09-09T17:14:28;1;1;